CW6297 Weather Reports


Display with metric or nautical units.
time (UTC)temp
F
wind
direction
speed
MPH
gust
MPH
rain 1hr
in
rain 24hr
in
rain mn
in
humidity
%
barometer
mb
20190318134726 26 318 0.0 0.0 0.00 0.00 0.00 88 1025.7
20190318133727 25 291 0.0 0.0 0.00 0.00 0.00 89 1025.7
20190318130722 24 277 0.0 0.0 0.00 0.00 0.00 89 1025.8
20190318124709 23 273 0.0 0.0 0.00 0.00 0.00 89 1025.6
20190318123734 23 275 0.0 0.0 0.00 0.00 0.00 89 1025.7
20190318122737 23 276 0.0 0.0 0.00 0.00 0.00 89 1025.7
20190318115729 22 317 0.0 0.0 0.00 0.00 0.00 88 1025.3
20190318111724 23 317 0.0 0.0 0.00 0.00 0.00 87 1025.1
20190318110712 23 317 0.0 0.0 0.00 0.00 0.00 87 1025.0
20190318105721 23 317 0.0 0.0 0.00 0.00 0.00 87 1025.1
20190318104703 23 317 0.0 0.0 0.00 0.00 0.00 86 1025.0
20190318103729 23 317 0.0 0.0 0.00 0.00 0.00 86 1024.9
20190318102739 24 317 0.0 0.0 0.00 0.00 0.00 85 1025.0
20190318100724 24 317 0.0 0.0 0.00 0.00 0.00 85 1025.0
20190318095712 25 317 0.0 0.0 0.00 0.00 0.00 84 1025.0
20190318094743 25 317 0.0 0.0 0.00 0.00 0.00 84 1024.9
20190318090746 25 309 0.0 0.0 0.00 0.00 0.00 84 1024.9
20190318085712 25 319 0.0 0.0 0.00 0.00 0.00 84 1024.9
20190318084741 25 306 0.0 0.0 0.00 0.00 0.00 85 1024.9
20190318082723 26 307 0.0 0.0 0.00 0.00 0.00 84 1024.9
20190318080730 26 311 0.0 0.0 0.00 0.00 0.00 84 1024.8
20190318075714 27 310 0.0 0.0 0.00 0.00 0.00 84 1024.8
20190318074743 27 317 0.0 4.0 0.00 0.00 0.00 84 1024.9
20190318071728 27 304 0.0 0.0 0.00 0.00 0.00 84 1024.9
20190318070740 27 302 0.0 0.0 0.00 0.00 0.00 84 1024.9
20190318065715 27 311 0.0 0.0 0.00 0.00 0.00 83 1024.8
20190318064720 27 290 0.0 0.0 0.00 0.00 0.00 83 1024.7
20190318062739 28 293 0.0 0.0 0.00 0.00 0.00 82 1024.7
20190318055726 28 280 0.0 0.0 0.00 0.00 0.00 81 1024.5
20190318051722 29 271 0.0 0.0 0.00 0.00 0.00 79 1024.3
20190318050717 29 267 0.0 0.0 0.00 0.00 0.00 79 1024.3
20190318044720 29 264 0.0 0.0 0.00 0.00 0.00 77 1024.3
20190318041723 30 243 0.0 0.0 0.00 0.00 0.00 75 1024.1
20190318040733 30 250 0.0 0.0 0.00 0.00 0.00 74 1024.0
20190318035728 30 248 0.0 0.0 0.00 0.00 0.00 73 1023.9
20190318031721 31 298 0.0 0.0 0.00 0.00 0.00 69 1023.7
20190318025735 31 281 0.0 0.0 0.00 0.00 0.00 69 1023.5
20190318024715 31 288 0.0 0.0 0.00 0.00 0.00 69 1023.4
20190318022721 32 291 0.0 0.0 0.00 0.00 0.00 68 1023.4
20190318021741 32 289 0.0 0.0 0.00 0.00 0.00 67 1023.4
20190318020738 32 277 0.0 0.0 0.00 0.00 0.00 67 1023.3
20190318013716 32 269 0.0 0.0 0.00 0.00 0.00 65 1023.1
20190318010725 33 250 2.0 5.0 0.00 0.00 0.00 62 1022.9
20190318005724 33 249 0.0 0.0 0.00 0.00 0.00 61 1022.8
20190318003733 34 245 3.0 5.0 0.00 0.00 0.00 60 1022.7
20190318002707 34 256 1.0 3.0 0.00 0.00 0.00 58 1022.6
20190318000715 35 247 2.0 5.0 0.00 0.00 0.00 54 1022.4
20190317235731 36 266 3.0 5.0 0.00 0.00 0.00 53 1022.2
20190317234704 36 240 3.0 6.0 0.00 0.00 0.00 51 1022.1
20190317233706 37 243 0.0 6.0 0.00 0.00 0.00 47 1022.1
20190317232711 38 250 2.0 6.0 0.00 0.00 0.00 45 1021.9
20190317231702 40 300 0.0 3.0 0.00 0.00 0.00 41 1021.8
20190317230746 40 295 1.0 8.0 0.00 0.00 0.00 42 1021.8
20190317225705 41 300 0.0 1.0 0.00 0.00 0.00 39 1021.8
20190317223718 41 255 2.0 5.0 0.00 0.00 0.00 39 1021.6
20190317222710 40 311 1.0 6.0 0.00 0.00 0.00 41 1021.6
20190317220714 42 251 4.0 6.0 0.00 0.00 0.00 38 1021.5
20190317215732 42 306 2.0 7.0 0.00 0.00 0.00 38 1021.6
20190317212741 40 269 3.0 9.0 0.00 0.00 0.00 42 1021.4
20190317211734 41 246 3.0 7.0 0.00 0.00 0.00 42 1021.4
20190317210719 44 253 4.0 7.0 0.00 0.00 0.00 36 1021.5
20190317204704 43 316 4.0 7.0 0.00 0.00 0.00 38 1021.5
20190317203721 40 323 2.0 7.0 0.00 0.00 0.00 42 1021.5
20190317202706 42 252 3.0 7.0 0.00 0.00 0.00 40 1021.5
20190317201740 43 289 1.0 8.0 0.00 0.00 0.00 38 1021.6
20190317200711 44 287 0.0 5.0 0.00 0.00 0.00 38 1021.7
20190317194724 41 263 0.0 5.0 0.00 0.00 0.00 42 1021.6
20190317193747 38 296 2.0 9.0 0.00 0.00 0.00 47 1021.6
20190317183733 39 280 2.0 7.0 0.00 0.00 0.00 46 1022.2
20190317182744 38 282 4.0 7.0 0.00 0.00 0.00 47 1022.1
20190317181738 39 314 4.0 7.0 0.00 0.00 0.00 46 1022.2
20190317174727 36 305 2.0 6.0 0.00 0.00 0.00 53 1022.5
20190317171721 35 260 5.0 10.0 0.00 0.00 0.00 53 1022.5
20190317170709 36 297 0.0 8.0 0.00 0.00 0.00 52 1022.5
20190317164725 36 311 1.0 3.0 0.00 0.00 0.00 54 1022.4
20190317163725 35 269 0.0 5.0 0.00 0.00 0.00 55 1022.5
20190317161704 34 272 1.0 8.0 0.00 0.00 0.00 57 1022.6
20190317160718 33 261 1.0 8.0 0.00 0.00 0.00 59 1022.6
20190317155712 33 250 0.0 4.0 0.00 0.00 0.00 61 1022.5
20190317154743 33 270 1.0 3.0 0.00 0.00 0.00 60 1022.5
20190317153713 32 296 0.0 6.0 0.00 0.00 0.00 62 1022.5
20190317151705 33 269 0.0 3.0 0.00 0.00 0.00 61 1022.4
20190317150717 32 305 0.0 2.0 0.00 0.00 0.00 65 1022.4
20190317144734 31 303 0.0 0.0 0.00 0.00 0.00 66 1022.3
20190317143732 31 292 0.0 0.0 0.00 0.00 0.00 67 1022.3
20190317142743 29 315 0.0 0.0 0.00 0.00 0.00 72 1022.3
20190317141727 29 270 0.0 0.0 0.00 0.00 0.00 72 1022.3
20190317140720 28 278 0.0 0.0 0.00 0.00 0.00 73 1022.4
20190317135717 27 311 0.0 0.0 0.00 0.00 0.00 76 1022.5